createdAt,value
2023-02-03T00:02:00.836Z,101659.03
2023-02-03T00:04:27.779Z,101669.59
2023-02-03T00:06:54.904Z,101672.47
2023-02-03T00:09:21.982Z,101662.28
2023-02-03T00:11:49.251Z,101658.22
2023-02-03T00:14:16.215Z,101653.31
2023-02-03T00:16:43.146Z,101657.38
2023-02-03T00:19:10.093Z,101666.53
2023-02-03T00:21:37.046Z,101669.88
2023-02-03T00:24:04.145Z,101669.69
2023-02-03T00:26:31.100Z,101676.16
2023-02-03T00:29:00.686Z,101676.22
2023-02-03T00:31:27.807Z,101672.66
2023-02-03T00:33:58.399Z,101666.91
2023-02-03T00:36:26.464Z,101678.56
2023-02-03T00:38:54.202Z,101686.34
2023-02-03T00:41:21.882Z,101683.47
2023-02-03T00:43:49.666Z,101685.13
2023-02-03T00:46:16.803Z,101676.72
2023-02-03T00:48:43.949Z,101684.94
2023-02-03T00:51:11.182Z,101682.00
2023-02-03T00:53:38.291Z,101685.44
2023-02-03T00:56:12.436Z,101677.84
2023-02-03T00:58:40.604Z,101679.84
2023-02-03T01:01:08.349Z,101668.56
2023-02-03T01:03:35.673Z,101653.03
2023-02-03T01:06:20.866Z,101632.06
2023-02-03T01:08:49.013Z,101633.81
2023-02-03T01:11:24.678Z,101636.22
2023-02-03T01:13:53.677Z,101627.78
2023-02-03T01:16:23.278Z,101646.38
2023-02-03T01:18:51.040Z,101657.66
2023-02-03T01:21:24.164Z,101665.91
2023-02-03T01:23:52.138Z,101665.81
2023-02-03T01:26:22.607Z,101680.53
2023-02-03T01:28:58.673Z,101672.09
2023-02-03T01:31:39.721Z,101662.13
2023-02-03T01:34:11.580Z,101661.81
2023-02-03T01:36:38.796Z,101663.13
2023-02-03T01:39:06.740Z,101661.00
2023-02-03T01:41:37.647Z,101645.84
2023-02-03T01:44:45.960Z,101640.16
2023-02-03T01:47:30.211Z,101622.53
2023-02-03T01:50:16.322Z,101626.97
2023-02-03T01:52:47.736Z,101620.03
2023-02-03T01:55:20.355Z,101604.41
2023-02-03T01:57:51.568Z,101575.19
2023-02-03T02:00:19.125Z,101569.63
2023-02-03T02:02:48.030Z,101562.47
2023-02-03T02:05:40.864Z,101565.06
2023-02-03T02:08:09.410Z,101572.75
2023-02-03T02:10:36.431Z,101588.47
2023-02-03T02:13:05.372Z,101596.25
2023-02-03T02:16:12.957Z,101597.91
2023-02-03T02:19:12.285Z,101589.78
2023-02-03T02:22:14.635Z,101574.78
2023-02-03T02:25:41.919Z,101566.94
2023-02-03T02:28:35.979Z,101564.97
2023-02-03T02:31:37.670Z,101561.00
2023-02-03T02:34:22.445Z,101558.88
2023-02-03T02:37:26.946Z,101547.88
2023-02-03T02:40:28.323Z,101560.38
2023-02-03T02:43:12.723Z,101561.66
2023-02-03T02:45:51.579Z,101556.88
2023-02-03T02:48:29.619Z,101545.28
2023-02-03T02:50:58.681Z,101535.41
2023-02-03T02:53:33.250Z,101545.28
2023-02-03T02:56:04.076Z,101548.81
2023-02-03T02:58:34.643Z,101536.34
2023-02-03T03:01:03.847Z,101544.00
2023-02-03T03:03:30.758Z,101551.59
2023-02-03T03:06:06.412Z,101558.44
2023-02-03T03:08:44.058Z,101549.09
2023-02-03T03:11:11.260Z,101541.03
2023-02-03T03:13:53.716Z,101551.94
2023-02-03T03:16:25.600Z,101558.53
2023-02-03T03:19:02.344Z,101558.03
2023-02-03T03:21:37.235Z,101570.44
2023-02-03T03:24:10.726Z,101574.06
2023-02-03T03:26:56.319Z,101585.69
2023-02-03T03:29:32.083Z,101578.84
2023-02-03T03:31:59.216Z,101589.09
2023-02-03T03:34:26.281Z,101586.47
2023-02-03T03:37:20.818Z,101601.41
2023-02-03T03:40:00.371Z,101609.81
2023-02-03T03:42:36.377Z,101615.66
2023-02-03T03:45:28.697Z,101621.00
2023-02-03T03:47:58.633Z,101620.66
2023-02-03T03:50:31.651Z,101623.44
2023-02-03T03:53:02.627Z,101627.09
2023-02-03T03:55:34.879Z,101609.91
2023-02-03T03:58:30.691Z,101612.41
2023-02-03T04:01:03.383Z,101604.91
2023-02-03T04:03:38.497Z,101604.56
2023-02-03T04:06:06.359Z,101601.78
2023-02-03T04:08:33.289Z,101586.34
2023-02-03T04:11:00.210Z,101581.69
2023-02-03T04:13:27.177Z,101584.50
2023-02-03T04:15:54.117Z,101605.31
2023-02-03T04:18:21.041Z,101612.25
2023-02-03T04:20:48.216Z,101606.75
2023-02-03T04:23:15.116Z,101615.16
2023-02-03T04:25:42.100Z,101598.63
2023-02-03T04:28:09.420Z,101605.13
2023-02-03T04:30:36.383Z,101604.00
2023-02-03T04:33:03.360Z,101606.97
2023-02-03T04:35:30.246Z,101617.31
2023-02-03T04:37:57.288Z,101616.94
2023-02-03T04:40:24.184Z,101613.41
2023-02-03T04:42:51.072Z,101614.00
2023-02-03T04:45:18.000Z,101600.66
2023-02-03T04:47:44.884Z,101597.78
2023-02-03T04:50:11.764Z,101611.41
2023-02-03T04:52:38.731Z,101600.41
2023-02-03T04:55:06.286Z,101617.69
2023-02-03T04:57:33.166Z,101605.97
2023-02-03T05:00:01.076Z,101613.91
2023-02-03T05:02:28.051Z,101612.16
2023-02-03T05:04:55.018Z,101605.88
2023-02-03T05:07:21.892Z,101616.22
2023-02-03T05:09:48.849Z,101605.56
2023-02-03T05:12:15.812Z,101583.88
2023-02-03T05:14:42.773Z,101588.19
2023-02-03T05:17:09.624Z,101583.78
2023-02-03T05:19:36.534Z,101589.94
2023-02-03T05:22:03.431Z,101588.19
2023-02-03T05:24:30.337Z,101578.94
2023-02-03T05:26:57.271Z,101575.72
2023-02-03T05:29:24.227Z,101583.78
2023-02-03T05:31:51.214Z,101586.16
2023-02-03T05:34:18.234Z,101597.06
2023-02-03T05:36:45.233Z,101600.59
2023-02-03T05:39:12.266Z,101602.53
2023-02-03T05:41:56.583Z,101577.38
2023-02-03T05:44:27.725Z,101579.44
2023-02-03T05:46:57.905Z,101564.53
2023-02-03T05:49:25.548Z,101583.78
2023-02-03T05:51:54.364Z,101593.63
2023-02-03T05:54:21.544Z,101584.59
2023-02-03T05:56:48.849Z,101571.63
2023-02-03T05:59:15.843Z,101584.41
2023-02-03T06:01:42.768Z,101577.47
2023-02-03T06:04:09.846Z,101585.78
2023-02-03T06:06:36.915Z,101606.59
2023-02-03T06:09:07.127Z,101593.94
2023-02-03T06:11:35.905Z,101594.78
2023-02-03T06:14:03.899Z,101607.44
2023-02-03T06:16:31.035Z,101613.91
2023-02-03T06:19:02.092Z,101609.19
2023-02-03T06:21:29.400Z,101587.53
2023-02-03T06:23:56.690Z,101583.50
2023-02-03T06:26:24.027Z,101589.03
2023-02-03T06:28:51.161Z,101575.72
2023-02-03T06:31:18.238Z,101569.16
2023-02-03T06:33:45.337Z,101575.72
2023-02-03T06:36:12.359Z,101580.91
2023-02-03T06:38:39.269Z,101576.53
2023-02-03T06:41:06.222Z,101571.91
2023-02-03T06:43:33.211Z,101568.28
2023-02-03T06:46:00.211Z,101575.91
2023-02-03T06:48:27.153Z,101578.63
2023-02-03T06:50:54.158Z,101562.38
2023-02-03T06:53:21.040Z,101555.16
2023-02-03T06:55:48.099Z,101568.09
2023-02-03T06:58:16.021Z,101560.53
2023-02-03T07:00:43.252Z,101563.88
2023-02-03T07:03:10.225Z,101555.53
2023-02-03T07:05:37.854Z,101555.63
2023-02-03T07:08:04.944Z,101542.91
2023-02-03T07:10:31.921Z,101535.50
2023-02-03T07:13:06.901Z,101525.91
2023-02-03T07:15:35.486Z,101546.94
2023-02-03T07:18:02.612Z,101571.34
2023-02-03T07:20:30.079Z,101572.56
2023-02-03T07:22:58.817Z,101573.38
2023-02-03T07:25:26.306Z,101575.91
2023-02-03T07:27:53.916Z,101588.66
2023-02-03T07:30:21.041Z,101589.47
2023-02-03T07:32:52.625Z,101608.41
2023-02-03T07:35:20.576Z,101605.81
2023-02-03T07:37:47.668Z,101617.72
2023-02-03T07:40:17.053Z,101621.25
2023-02-03T07:42:49.763Z,101625.81
2023-02-03T07:45:18.209Z,101639.75
2023-02-03T07:47:45.437Z,101631.31
2023-02-03T07:50:13.167Z,101623.56
2023-02-03T07:52:40.535Z,101627.81
2023-02-03T07:55:08.090Z,101640.97
2023-02-03T07:57:35.593Z,101646.22
2023-02-03T08:00:04.492Z,101647.91
2023-02-03T08:02:32.462Z,101635.69
2023-02-03T08:04:59.404Z,101626.16
2023-02-03T08:07:26.457Z,101627.69
2023-02-03T08:09:53.399Z,101642.63
2023-02-03T08:12:20.289Z,101630.91
2023-02-03T08:14:47.285Z,101641.53
2023-02-03T08:17:14.325Z,101645.53
2023-02-03T08:19:44.702Z,101647.19
2023-02-03T08:22:16.625Z,101653.00
2023-02-03T08:24:47.481Z,101647.72
2023-02-03T08:27:20.276Z,101641.81
2023-02-03T08:29:48.335Z,101645.81
2023-02-03T08:32:21.807Z,101654.75
2023-02-03T08:34:50.494Z,101649.44
2023-02-03T08:37:20.743Z,101642.41
2023-02-03T08:39:48.965Z,101627.41
2023-02-03T08:42:15.928Z,101628.63
2023-02-03T08:44:44.110Z,101635.81
2023-02-03T08:47:11.980Z,101633.97
2023-02-03T08:49:42.045Z,101631.75
2023-02-03T08:52:12.144Z,101625.84
2023-02-03T08:54:39.391Z,101632.50
2023-02-03T08:57:07.461Z,101636.50
2023-02-03T08:59:40.722Z,101641.75
2023-02-03T09:02:14.197Z,101630.84
2023-02-03T09:04:41.272Z,101615.50
2023-02-03T09:07:08.404Z,101620.97
2023-02-03T09:09:35.408Z,101623.44
2023-02-03T09:12:02.597Z,101621.22
2023-02-03T09:14:33.802Z,101635.28
2023-02-03T09:17:03.445Z,101639.16
2023-02-03T09:19:31.504Z,101639.00
2023-02-03T09:21:58.499Z,101634.25
2023-02-03T09:24:25.735Z,101620.28
2023-02-03T09:26:53.338Z,101630.00
2023-02-03T09:29:21.209Z,101626.38
2023-02-03T09:31:52.648Z,101627.94
2023-02-03T09:34:20.619Z,101635.38
2023-02-03T09:36:48.167Z,101627.50
2023-02-03T09:39:15.827Z,101609.63
2023-02-03T09:42:34.917Z,101611.19
2023-02-03T09:45:23.194Z,101608.50
2023-02-03T09:47:54.137Z,101602.84
2023-02-03T09:50:34.579Z,101595.09
2023-02-03T09:53:12.290Z,101591.66
2023-02-03T09:55:43.365Z,101592.97
2023-02-03T09:58:21.184Z,101609.91
2023-02-03T10:00:51.657Z,101612.66
2023-02-03T10:03:25.258Z,101617.22
2023-02-03T10:06:02.511Z,101605.94
2023-02-03T10:08:35.440Z,101620.53
2023-02-03T10:11:50.161Z,101626.94
2023-02-03T10:15:07.505Z,101639.06
2023-02-03T10:17:42.167Z,101637.44
2023-02-03T10:20:09.082Z,101627.78
2023-02-03T10:23:04.640Z,101634.88
2023-02-03T10:25:43.545Z,101623.44
2023-02-03T10:28:23.727Z,101618.97
2023-02-03T10:31:00.535Z,101607.56
2023-02-03T10:33:31.216Z,101618.41
2023-02-03T10:36:33.828Z,101618.59
2023-02-03T10:39:45.205Z,101610.75
2023-02-03T10:42:13.403Z,101606.06
2023-02-03T10:44:42.952Z,101610.44
2023-02-03T10:47:30.542Z,101598.00
2023-02-03T10:49:58.923Z,101595.97
2023-02-03T10:52:35.332Z,101593.84
2023-02-03T10:55:29.055Z,101583.50
2023-02-03T10:57:56.979Z,101575.59
2023-02-03T11:00:32.272Z,101586.13
2023-02-03T11:03:06.521Z,101596.69
2023-02-03T11:05:34.173Z,101590.28
2023-02-03T11:08:01.697Z,101566.75
2023-02-03T11:10:40.084Z,101548.19
2023-02-03T11:13:20.732Z,101544.47
2023-02-03T11:16:10.715Z,101526.94
2023-02-03T11:19:04.908Z,101522.56
2023-02-03T11:21:39.554Z,101546.78
2023-02-03T11:24:52.752Z,101541.09
2023-02-03T11:27:21.622Z,101529.75
2023-02-03T11:30:18.238Z,101528.72
2023-02-03T11:32:48.147Z,101521.88
2023-02-03T11:35:26.111Z,101511.72
2023-02-03T11:38:00.950Z,101534.53
2023-02-03T11:40:38.555Z,101538.78
2023-02-03T11:43:32.008Z,101532.25
2023-02-03T11:46:07.720Z,101543.00
2023-02-03T11:48:46.595Z,101529.31
2023-02-03T11:51:16.228Z,101524.44
2023-02-03T11:54:03.961Z,101541.91
2023-02-03T11:57:26.961Z,101542.41
2023-02-03T12:00:22.898Z,101535.56
2023-02-03T12:03:12.674Z,101536.19
2023-02-03T12:05:58.989Z,101533.19
2023-02-03T12:09:08.738Z,101537.84
2023-02-03T12:12:12.969Z,101540.88
2023-02-03T12:15:23.579Z,101560.38
2023-02-03T12:18:49.339Z,101564.44
2023-02-03T12:21:21.997Z,101568.72
2023-02-03T12:23:51.825Z,101564.63
2023-02-03T12:26:24.935Z,101555.28
2023-02-03T12:28:56.183Z,101575.75
2023-02-03T12:31:50.850Z,101574.38
2023-02-03T12:34:33.117Z,101572.94
2023-02-03T12:37:13.834Z,101551.97
2023-02-03T12:40:16.073Z,101539.59
2023-02-03T12:42:55.880Z,101511.97
2023-02-03T12:45:30.370Z,101493.09
2023-02-03T12:48:06.371Z,101488.00
2023-02-03T12:50:42.072Z,101470.16
2023-02-03T12:53:22.310Z,101460.91
2023-02-03T12:56:05.214Z,101476.69
2023-02-03T12:59:15.935Z,101468.09
2023-02-03T13:01:52.648Z,101483.88
2023-02-03T13:04:37.181Z,101470.19
2023-02-03T13:07:28.531Z,101454.38
2023-02-03T13:10:00.158Z,101468.91
2023-02-03T13:12:32.584Z,101463.50
2023-02-03T13:15:18.516Z,101465.97
2023-02-03T13:18:00.064Z,101464.75
2023-02-03T13:20:31.421Z,101457.69
2023-02-03T13:22:58.714Z,101444.50
2023-02-03T13:26:13.288Z,101440.25
2023-02-03T13:28:59.825Z,101431.63
2023-02-03T13:31:42.124Z,101418.69
2023-02-03T13:35:12.924Z,101435.91
2023-02-03T13:37:57.104Z,101442.34
2023-02-03T13:40:56.392Z,101436.69
2023-02-03T13:43:39.593Z,101428.00
2023-02-03T13:46:29.794Z,101429.59
2023-02-03T13:49:00.992Z,101435.69
2023-02-03T13:51:36.459Z,101432.69
2023-02-03T13:54:08.472Z,101420.34
2023-02-03T13:56:35.851Z,101428.94
2023-02-03T13:59:05.633Z,101417.44
2023-02-03T14:01:37.162Z,101416.41
2023-02-03T14:04:26.602Z,101404.75
2023-02-03T14:06:53.438Z,101399.41
2023-02-03T14:09:31.878Z,101424.81
2023-02-03T14:12:18.558Z,101420.66
2023-02-03T14:15:04.153Z,101424.41
2023-02-03T14:17:35.208Z,101419.09
2023-02-03T14:20:12.072Z,101412.25
2023-02-03T14:22:40.426Z,101412.25
2023-02-03T14:25:07.874Z,101414.84
2023-02-03T14:27:34.940Z,101425.97
2023-02-03T14:30:12.853Z,101426.78
2023-02-03T14:33:00.031Z,101432.59
2023-02-03T14:35:36.169Z,101432.19
2023-02-03T14:38:21.908Z,101450.75
2023-02-03T14:40:58.394Z,101457.59
2023-02-03T14:44:12.796Z,101465.59
2023-02-03T14:47:10.781Z,101462.28
2023-02-03T14:49:49.520Z,101476.31
2023-02-03T14:52:33.560Z,101483.16
2023-02-03T14:55:36.400Z,101483.03
2023-02-03T14:58:19.151Z,101498.72
2023-02-03T15:00:46.074Z,101493.63
2023-02-03T15:03:15.240Z,101502.97
2023-02-03T15:05:48.608Z,101504.53
2023-02-03T15:08:40.025Z,101498.06
2023-02-03T15:11:33.237Z,101509.22
2023-02-03T15:14:27.002Z,101508.56
2023-02-03T15:16:57.952Z,101515.59
2023-02-03T15:19:34.472Z,101527.84
2023-02-03T15:22:02.569Z,101532.09
2023-02-03T15:24:37.100Z,101549.00
2023-02-03T15:27:05.134Z,101547.31
2023-02-03T15:29:34.181Z,101544.88
2023-02-03T15:32:19.148Z,101552.34
2023-02-03T15:34:49.584Z,101545.69
2023-02-03T15:37:46.164Z,101548.56
2023-02-03T15:40:21.762Z,101553.03
2023-02-03T15:43:21.033Z,101553.13
2023-02-03T15:46:17.896Z,101562.16
2023-02-03T15:48:58.989Z,101565.75
2023-02-03T15:51:39.727Z,101565.75
2023-02-03T15:54:41.340Z,101561.44
2023-02-03T15:57:22.003Z,101551.13
2023-02-03T16:00:29.258Z,101568.34
2023-02-03T16:02:58.614Z,101562.00
2023-02-03T16:05:34.987Z,101561.81
2023-02-03T16:08:39.771Z,101561.69
2023-02-03T16:11:37.189Z,101568.84
2023-02-03T16:14:11.561Z,101573.63
2023-02-03T16:17:04.514Z,101568.94
2023-02-03T16:19:40.197Z,101569.28
2023-02-03T16:22:31.635Z,101564.66
2023-02-03T16:25:33.256Z,101559.91
2023-02-03T16:28:35.474Z,101557.38
2023-02-03T16:31:38.372Z,101554.38
2023-02-03T16:34:37.535Z,101550.88
2023-02-03T16:37:53.542Z,101546.28
2023-02-03T16:40:42.539Z,101548.53
2023-02-03T16:43:32.332Z,101555.06
2023-02-03T16:46:19.222Z,101543.50
2023-02-03T16:49:05.678Z,101536.44
2023-02-03T16:51:40.816Z,101533.69
2023-02-03T16:54:13.260Z,101532.25
2023-02-03T16:56:40.788Z,101522.94
2023-02-03T16:59:07.898Z,101530.78
2023-02-03T17:01:35.712Z,101546.91
2023-02-03T17:04:02.827Z,101557.25
2023-02-03T17:06:30.019Z,101553.06
2023-02-03T17:08:58.850Z,101558.66
2023-02-03T17:11:26.958Z,101558.75
2023-02-03T17:13:54.131Z,101562.47
2023-02-03T17:16:24.309Z,101568.38
2023-02-03T17:18:52.059Z,101583.63
2023-02-03T17:21:26.732Z,101586.94
2023-02-03T17:23:54.426Z,101582.59
2023-02-03T17:26:21.623Z,101594.72
2023-02-03T17:28:48.585Z,101594.81
2023-02-03T17:31:20.147Z,101584.03
2023-02-03T17:33:51.657Z,101583.16
2023-02-03T17:36:19.994Z,101592.44
2023-02-03T17:55:26.136Z,101572.31
2023-02-03T17:57:53.031Z,101576.56
2023-02-03T18:00:20.278Z,101582.06
2023-02-03T18:02:51.696Z,101590.56
2023-02-03T18:05:19.097Z,101584.88
2023-02-03T18:07:46.053Z,101592.19
2023-02-03T18:10:13.130Z,101580.13
2023-02-03T18:12:40.079Z,101585.50
2023-02-03T18:15:07.413Z,101592.56
2023-02-03T18:17:34.396Z,101591.97
2023-02-03T18:20:03.938Z,101594.88
2023-02-03T18:22:30.982Z,101589.97
2023-02-03T18:24:57.973Z,101595.50
2023-02-03T18:27:24.962Z,101584.59
2023-02-03T18:29:51.926Z,101597.38
2023-02-03T18:32:19.949Z,101595.50
2023-02-03T18:34:46.962Z,101591.03
2023-02-03T18:37:13.852Z,101594.34
2023-02-03T18:39:40.840Z,101601.06
2023-02-03T18:42:07.815Z,101610.13
2023-02-03T18:44:34.860Z,101609.59
2023-02-03T18:47:06.965Z,101601.31
2023-02-03T18:49:37.997Z,101616.16
2023-02-03T18:52:05.499Z,101620.72
2023-02-03T18:54:32.932Z,101622.38
2023-02-03T18:57:00.276Z,101615.84
2023-02-03T18:59:27.293Z,101611.91
2023-02-03T19:01:54.514Z,101609.41
2023-02-03T19:04:21.535Z,101612.00
2023-02-03T19:06:48.779Z,101617.50
2023-02-03T19:09:17.070Z,101615.31
2023-02-03T19:11:44.496Z,101618.53
2023-02-03T19:14:14.244Z,101619.47
2023-02-03T19:16:41.352Z,101621.03
2023-02-03T19:19:08.958Z,101625.50
2023-02-03T19:21:35.946Z,101637.63
2023-02-03T19:24:02.997Z,101638.75
2023-02-03T19:26:31.006Z,101633.47
2023-02-03T19:28:58.075Z,101641.78
2023-02-03T19:31:25.269Z,101651.16
2023-02-03T19:33:52.340Z,101642.72
2023-02-03T19:36:19.336Z,101644.28
2023-02-03T19:38:46.322Z,101645.88
2023-02-03T19:41:13.406Z,101635.81
2023-02-03T19:43:40.436Z,101630.94
2023-02-03T19:46:08.321Z,101634.97
2023-02-03T19:48:36.131Z,101625.78
2023-02-03T19:51:03.029Z,101623.28
2023-02-03T19:53:29.920Z,101635.81
2023-02-03T19:55:56.994Z,101632.06
2023-02-03T19:58:24.145Z,101639.84
2023-02-03T20:00:51.512Z,101649.22
2023-02-03T20:03:19.753Z,101649.66
2023-02-03T20:05:47.151Z,101636.69
2023-02-03T20:08:15.668Z,101646.13
2023-02-03T20:10:45.325Z,101643.72
2023-02-03T20:13:13.285Z,101643.72
2023-02-03T20:15:40.772Z,101650.06
2023-02-03T20:18:08.386Z,101653.19
2023-02-03T20:20:36.078Z,101639.28
2023-02-03T20:23:03.105Z,101638.34
2023-02-03T20:25:30.130Z,101648.34
2023-02-03T20:27:58.185Z,101639.16
2023-02-03T20:30:25.416Z,101653.19
2023-02-03T20:32:54.656Z,101645.53
2023-02-03T20:35:23.681Z,101649.78
2023-02-03T20:37:50.986Z,101651.09
2023-02-03T20:40:19.426Z,101661.22
2023-02-03T20:42:47.390Z,101658.88
2023-02-03T20:45:19.953Z,101654.00
2023-02-03T20:47:47.600Z,101658.41
2023-02-03T20:50:31.562Z,101665.38
2023-02-03T20:53:13.614Z,101653.53
2023-02-03T20:55:40.987Z,101652.50
2023-02-03T20:58:25.280Z,101663.50
2023-02-03T21:00:52.952Z,101660.31
2023-02-03T21:03:38.596Z,101661.25
2023-02-03T21:06:20.263Z,101667.53
2023-02-03T21:08:48.318Z,101669.97
2023-02-03T21:11:21.046Z,101660.44
2023-02-03T21:13:49.945Z,101661.03
2023-02-03T21:16:26.147Z,101661.84
2023-02-03T21:18:56.622Z,101658.13
2023-02-03T21:21:34.821Z,101659.81
2023-02-03T21:24:04.033Z,101666.25
2023-02-03T21:26:34.324Z,101669.34
2023-02-03T21:29:02.214Z,101675.06
2023-02-03T21:31:35.150Z,101673.97
2023-02-03T21:34:22.941Z,101670.41
2023-02-03T21:36:49.887Z,101671.84
2023-02-03T21:39:33.997Z,101673.78
2023-02-03T21:42:40.760Z,101674.47
2023-02-03T21:45:17.064Z,101675.59
2023-02-03T21:47:47.002Z,101674.81
2023-02-03T21:50:35.745Z,101671.78
2023-02-03T21:53:08.411Z,101678.56
2023-02-03T21:55:36.773Z,101682.03
2023-02-03T21:58:39.680Z,101668.25
2023-02-03T22:01:07.930Z,101682.94
2023-02-03T22:03:43.289Z,101696.94
2023-02-03T22:06:15.583Z,101682.94
2023-02-03T22:08:57.370Z,101686.59
2023-02-03T22:11:28.831Z,101678.19
2023-02-03T22:13:56.908Z,101682.34
2023-02-03T22:16:24.618Z,101682.25
2023-02-03T22:18:52.415Z,101695.38
2023-02-03T22:21:19.693Z,101687.47
2023-02-03T22:23:46.786Z,101687.84
2023-02-03T22:26:15.360Z,101699.31
2023-02-03T22:28:43.030Z,101680.53
2023-02-03T22:31:12.928Z,101692.66
2023-02-03T22:33:41.611Z,101693.81
2023-02-03T22:36:10.506Z,101698.59
2023-02-03T22:38:38.823Z,101706.31
2023-02-03T22:41:07.611Z,101722.31
2023-02-03T22:43:35.215Z,101719.53
2023-02-03T22:46:02.352Z,101726.19
2023-02-03T22:48:29.461Z,101709.38
2023-02-03T22:50:58.287Z,101711.09
2023-02-03T22:53:27.403Z,101711.22
2023-02-03T22:55:54.681Z,101719.94
2023-02-03T22:58:21.878Z,101722.56
2023-02-03T23:00:48.997Z,101721.38
2023-02-03T23:03:16.241Z,101722.53
2023-02-03T23:05:43.228Z,101718.56
2023-02-03T23:08:10.363Z,101733.81
2023-02-03T23:10:37.365Z,101733.97
2023-02-03T23:13:04.647Z,101730.91
2023-02-03T23:15:31.707Z,101725.91
2023-02-03T23:17:58.757Z,101732.31
2023-02-03T23:20:25.706Z,101735.75
2023-02-03T23:22:52.650Z,101734.72
2023-02-03T23:25:19.587Z,101738.16
2023-02-03T23:27:46.636Z,101738.34
2023-02-03T23:30:15.785Z,101734.25
2023-02-03T23:32:42.710Z,101735.19
2023-02-03T23:35:28.950Z,101732.88
2023-02-03T23:37:56.927Z,101743.56
2023-02-03T23:40:23.969Z,101734.25
2023-02-03T23:42:50.917Z,101741.13
2023-02-03T23:45:18.110Z,101737.16
2023-02-03T23:47:46.314Z,101730.59
2023-02-03T23:50:16.900Z,101714.47
2023-02-03T23:52:43.847Z,101723.81
2023-02-03T23:55:14.723Z,101727.25
2023-02-03T23:57:45.449Z,101729.06
